X  CloseMetar Aviation Weather Data     YMAV Avalon Airport

Temperature

2°C Temperature

2°C Dewpoint

100% Humidity



Wind

 8 KM/H

 5 MPH

 2 M/S

 4 KTS



40°
North East
Current Conditions

Clear Clear
Pressure 1017.92 (hPa) - 30.06 (in)
Visibility 6.2 (mi) - 10 (km)
Airport
Airport-code YMAV

Location Avalon Airport 14 (km)

Metar:
YMAV 101830Z AUTO 04004KT 9999 // NCD 02/02 Q1018 RF00.0/000.0

Time: 11-08-2020 04:30